»·PEaware :: VIP318 KPSC-KFOT

VIP318 :: KPSC-KFOT

FLIGHT INFORMATION

Flight Status: Arrived
Operator:
Virtual Pilots Association (website)
More flights by this operator :: More flights under this callsign
Pilot: Chris B. (15698)
Aircraft: PIAGGIO P-180 AVANTI
(P180)
More flights by this aircraft type
Origin: KPSC Tri-Cities
United States
Destination: KFOT Rohnerville
United States
More flights between these airports :: More routes between these airports
Route: +PDT V536 DSD V595 OED V122 CEC V494 FOYTE
File this flight plan on PilotEdge
Remarks:
Altitude:
(Current/Filed)
32,000ft
Speed:
(Current/Filed)
360kts
Departed: 23-Jan-18 08:58 PM
Arrived: 23-Jan-18 10:50 PM
Distance/Time
Traveled:
406nm/1:52
Distance/Time
To Go:
Arrived

Flight Plot

Page will automatically refresh every two minutes.

Flight plan parsing failed; only flown route is shown


Map Options




Map Legend


Flown Route
Filed Route
Departure Airport
Arrival Airport
Navaid (VOR, NDB)
Fix

Horizontal Profiles

Position Reports

Time Latitude Longitude Heading Altitude Ground
Speed
23-Jan-18 20:45 46.267690 -119.106120 341 415ft 0kts
23-Jan-18 20:46 46.267690 -119.106120 341 415ft 0kts
23-Jan-18 20:47 46.267690 -119.106120 341 415ft 0kts
23-Jan-18 20:48 46.267690 -119.106120 341 415ft 0kts
23-Jan-18 20:49 46.267690 -119.106120 341 415ft 0kts
23-Jan-18 20:50 46.267690 -119.106120 341 415ft 0kts
23-Jan-18 20:51 46.267690 -119.106120 341 415ft 0kts
23-Jan-18 20:52 46.267690 -119.106120 341 415ft 0kts
23-Jan-18 20:53 46.267690 -119.106120 341 415ft 0kts
23-Jan-18 20:54 46.267690 -119.106120 341 415ft 0kts
23-Jan-18 20:55 46.267690 -119.106120 341 415ft 0kts
23-Jan-18 20:56 46.267479 -119.106459 224 415ft 6kts
23-Jan-18 20:57 46.267703 -119.108060 274 415ft 0kts
23-Jan-18 20:58 46.267703 -119.108060 274 415ft 0kts
23-Jan-18 20:59 46.267707 -119.108185 269 415ft 2kts
23-Jan-18 21:00 46.264331 -119.107293 160 415ft 18kts
23-Jan-18 21:01 46.259892 -119.105278 197 415ft 13kts
23-Jan-18 21:02 46.259143 -119.106092 224 415ft 0kts
23-Jan-18 21:03 46.258776 -119.106836 256 415ft 15kts
23-Jan-18 21:04 46.265696 -119.117057 315 476ft 124kts
23-Jan-18 21:05 46.292470 -119.153220 315 2430ft 142kts
23-Jan-18 21:06 46.325217 -119.193972 315 4475ft 175kts
23-Jan-18 21:07 46.346642 -119.245788 232 6822ft 172kts
23-Jan-18 21:08 46.303070 -119.218796 150 8824ft 212kts
23-Jan-18 21:09 46.252160 -119.181891 168 10796ft 208kts
23-Jan-18 21:10 46.202596 -119.157737 171 12648ft 209kts
23-Jan-18 21:11 46.149093 -119.133864 172 14401ft 213kts
23-Jan-18 21:12 46.094363 -119.109886 173 15984ft 216kts
23-Jan-18 21:13 46.037422 -119.085089 173 17845ft 222kts
23-Jan-18 21:14 45.978727 -119.059612 174 19998ft 229kts
23-Jan-18 21:15 45.918478 -119.033523 174 22026ft 237kts
23-Jan-18 21:16 45.869001 -119.012145 175 23601ft 245kts
23-Jan-18 21:17 45.806774 -118.985280 176 25625ft 253kts
23-Jan-18 21:18 45.754433 -118.962760 176 27108ft 260kts
23-Jan-18 21:19 45.683124 -118.979409 226 29195ft 225kts
23-Jan-18 21:20 45.639891 -119.040854 234 30797ft 227kts
23-Jan-18 21:21 45.598741 -119.108752 235 31937ft 240kts
23-Jan-18 21:22 45.561407 -119.171778 235 31960ft 271kts
23-Jan-18 21:23 45.511998 -119.255205 234 31961ft 283kts
23-Jan-18 21:24 45.463322 -119.337236 234 31950ft 287kts
23-Jan-18 21:25 45.403546 -119.437641 234 31976ft 288kts
23-Jan-18 21:26 45.360650 -119.509483 234 31974ft 289kts
23-Jan-18 21:27 45.309060 -119.595641 234 31973ft 289kts
23-Jan-18 21:28 45.261558 -119.674711 233 31983ft 289kts
23-Jan-18 21:29 45.214343 -119.753063 234 31983ft 290kts
23-Jan-18 21:30 45.162463 -119.839005 234 31982ft 290kts
23-Jan-18 21:31 45.114129 -119.918771 234 31980ft 289kts
23-Jan-18 21:32 45.062235 -120.004170 234 31979ft 289kts
23-Jan-18 21:33 45.010192 -120.089554 234 31959ft 289kts
23-Jan-18 21:34 44.958018 -120.174886 234 31958ft 288kts
23-Jan-18 21:35 44.906146 -120.259483 233 31958ft 288kts
23-Jan-18 21:36 44.856234 -120.340604 233 31961ft 287kts
23-Jan-18 21:37 44.804247 -120.424862 233 31959ft 287kts
23-Jan-18 21:38 44.752077 -120.509183 233 31958ft 287kts
23-Jan-18 21:39 44.700327 -120.592564 233 31957ft 287kts
23-Jan-18 21:40 44.649983 -120.673435 233 31966ft 287kts
23-Jan-18 21:41 44.609277 -120.738680 233 31967ft 289kts
23-Jan-18 21:42 44.556837 -120.822495 233 31966ft 288kts
23-Jan-18 21:43 44.504580 -120.905750 233 31992ft 287kts
23-Jan-18 21:44 44.452649 -120.988259 233 31964ft 288kts
23-Jan-18 21:45 44.400799 -121.070397 233 31974ft 287kts
23-Jan-18 21:46 44.348394 -121.153170 233 31969ft 287kts
23-Jan-18 21:47 44.296309 -121.235203 233 31968ft 286kts
23-Jan-18 21:48 44.242993 -121.310965 222 31968ft 291kts
23-Jan-18 21:49 44.177346 -121.374273 221 31974ft 293kts
23-Jan-18 21:50 44.111311 -121.436274 221 31973ft 293kts
23-Jan-18 21:51 44.044152 -121.499012 221 31972ft 293kts
23-Jan-18 21:52 43.978354 -121.560299 221 31971ft 292kts
23-Jan-18 21:53 43.912225 -121.621725 221 31970ft 292kts
23-Jan-18 21:54 43.851377 -121.678089 220 31988ft 294kts
23-Jan-18 21:55 43.799250 -121.726277 220 31987ft 295kts
23-Jan-18 21:56 43.733925 -121.786509 220 31985ft 294kts
23-Jan-18 21:57 43.666138 -121.848843 220 31984ft 294kts
23-Jan-18 21:58 43.598929 -121.910477 220 31983ft 293kts
23-Jan-18 21:59 43.531611 -121.972043 220 31982ft 293kts
23-Jan-18 22:00 43.464712 -122.033061 220 31981ft 293kts
23-Jan-18 22:01 43.397679 -122.094035 220 31988ft 292kts
23-Jan-18 22:02 43.330466 -122.155009 220 31987ft 292kts
23-Jan-18 22:03 43.264009 -122.215135 220 31986ft 292kts
23-Jan-18 22:04 43.199753 -122.273135 220 31985ft 292kts
23-Jan-18 22:05 43.134408 -122.331935 220 31983ft 292kts
23-Jan-18 22:06 43.068015 -122.391535 220 31982ft 291kts
23-Jan-18 22:07 43.001464 -122.451165 219 32033ft 286kts
23-Jan-18 22:08 42.935415 -122.510104 219 32003ft 284kts
23-Jan-18 22:09 42.872503 -122.566139 219 32041ft 283kts
23-Jan-18 22:10 42.811777 -122.620098 219 32040ft 284kts
23-Jan-18 22:11 42.755187 -122.670257 219 32052ft 284kts
23-Jan-18 22:12 42.692384 -122.725816 219 32051ft 286kts
23-Jan-18 22:13 42.626043 -122.784320 219 32050ft 286kts
23-Jan-18 22:14 42.560651 -122.841852 219 32048ft 285kts
23-Jan-18 22:15 42.495216 -122.899302 219 32046ft 284kts
23-Jan-18 22:16 42.446627 -122.978015 236 32045ft 276kts
23-Jan-18 22:17 42.402335 -123.062220 236 32044ft 276kts
23-Jan-18 22:18 42.358211 -123.146448 236 32042ft 276kts
23-Jan-18 22:19 42.315171 -123.230083 236 31605ft 272kts
23-Jan-18 22:20 42.273384 -123.310268 236 30065ft 255kts
23-Jan-18 22:21 42.233767 -123.386023 235 28509ft 245kts
23-Jan-18 22:22 42.195093 -123.459779 235 26957ft 241kts
23-Jan-18 22:23 42.157016 -123.532214 235 25413ft 240kts
23-Jan-18 22:24 42.118810 -123.604715 235 24106ft 239kts
23-Jan-18 22:25 42.080217 -123.677756 235 24075ft 249kts
23-Jan-18 22:26 42.039933 -123.753841 234 24072ft 254kts
23-Jan-18 22:27 41.998979 -123.831011 234 23846ft 258kts
23-Jan-18 22:28 41.957921 -123.908132 234 22710ft 253kts
23-Jan-18 22:29 41.917223 -123.984389 234 21579ft 252kts
23-Jan-18 22:30 41.879054 -124.055736 234 20548ft 253kts
23-Jan-18 22:31 41.840984 -124.126743 233 19547ft 254kts
23-Jan-18 22:32 41.800092 -124.202829 233 18473ft 256kts
23-Jan-18 22:33 41.741331 -124.252251 203 17379ft 266kts
23-Jan-18 22:34 41.670292 -124.279719 201 16282ft 268kts
23-Jan-18 22:35 41.598373 -124.305570 200 15181ft 271kts
23-Jan-18 22:36 41.528460 -124.330419 200 14058ft 252kts
23-Jan-18 22:37 41.463586 -124.353438 200 12951ft 240kts
23-Jan-18 22:38 41.400084 -124.375939 200 11838ft 239kts
23-Jan-18 22:39 41.335463 -124.398778 199 10733ft 245kts
23-Jan-18 22:40 41.269538 -124.422013 199 9614ft 245kts
23-Jan-18 22:41 41.205090 -124.422201 175 8461ft 238kts
23-Jan-18 22:42 41.142446 -124.401399 172 7334ft 230kts
23-Jan-18 22:43 41.082880 -124.380370 171 6613ft 227kts
23-Jan-18 22:44 41.020632 -124.358247 170 6009ft 234kts
23-Jan-18 22:45 40.961086 -124.337019 170 5974ft 216kts
23-Jan-18 22:46 40.904798 -124.317044 171 5974ft 207kts
23-Jan-18 22:47 40.858339 -124.300589 171 5982ft 203kts
23-Jan-18 22:48 40.803123 -124.299018 186 5417ft 209kts
23-Jan-18 22:49 40.747717 -124.304515 186 4238ft 197kts
23-Jan-18 22:50 40.694465 -124.310308 182 3068ft 189kts
23-Jan-18 22:51 40.653888 -124.296761 138 3026ft 148kts
23-Jan-18 22:52 40.626216 -124.254607 133 2459ft 163kts
23-Jan-18 22:53 40.598282 -124.208225 130 1588ft 152kts
23-Jan-18 22:54 40.578336 -124.174312 129 978ft 108kts
23-Jan-18 22:55 40.560315 -124.143519 127 566ft 102kts
23-Jan-18 22:56 40.551536 -124.128554 129 397ft 26kts
23-Jan-18 22:57 40.551926 -124.126600 39 397ft 0kts
23-Jan-18 22:58 40.551926 -124.126600 39 397ft 0kts
23-Jan-18 22:59 40.551926 -124.126600 39 397ft 0kts
23-Jan-18 23:00 40.551926 -124.126600 39 397ft 0kts
23-Jan-18 23:01 40.551926 -124.126600 39 397ft 0kts
23-Jan-18 23:02 40.551926 -124.126600 39 397ft 0kts
23-Jan-18 23:03 40.551926 -124.126600 39 397ft 0kts
23-Jan-18 23:04 40.551926 -124.126600 39 397ft 0kts
23-Jan-18 23:05 40.551926 -124.126600 39 397ft 0kts
23-Jan-18 23:06 40.551926 -124.126600 39 397ft 0kts
23-Jan-18 23:07 40.551926 -124.126600 39 397ft 0kts
23-Jan-18 23:08 40.551926 -124.126600 39 397ft 0kts
23-Jan-18 23:09 40.551926 -124.126600 39 397ft 0kts
23-Jan-18 23:10 40.551926 -124.126600 39 397ft 0kts

Navigation Log

Ident Type
Flight plan parsing failed, navigation log unavailable